sensor_id;sensor_type;location;lat;lon;timestamp;pressure;altitude;pressure_sealevel;temperature;humidity
28797;BME280;24974;54.444;18.560;2024-01-30T00:02:14;102592.66;;;6.54;55.96
28797;BME280;24974;54.444;18.560;2024-01-30T00:04:45;102583.97;;;6.34;56.48
28797;BME280;24974;54.444;18.560;2024-01-30T00:07:16;102591.38;;;6.68;55.65
28797;BME280;24974;54.444;18.560;2024-01-30T00:09:47;102592.53;;;6.96;54.57
28797;BME280;24974;54.444;18.560;2024-01-30T00:12:20;102588.97;;;6.95;54.28
28797;BME280;24974;54.444;18.560;2024-01-30T00:14:51;102587.44;;;6.99;54.19
28797;BME280;24974;54.444;18.560;2024-01-30T00:17:22;102587.69;;;6.09;55.53
28797;BME280;24974;54.444;18.560;2024-01-30T00:19:55;102591.91;;;6.35;55.87
28797;BME280;24974;54.444;18.560;2024-01-30T00:22:26;102591.63;;;6.13;56.11
28797;BME280;24974;54.444;18.560;2024-01-30T00:24:57;102596.44;;;6.53;55.57
28797;BME280;24974;54.444;18.560;2024-01-30T00:27:28;102598.56;;;5.49;57.81
28797;BME280;24974;54.444;18.560;2024-01-30T00:29:59;102594.38;;;6.25;56.50
28797;BME280;24974;54.444;18.560;2024-01-30T00:32:30;102594.91;;;6.04;56.86
28797;BME280;24974;54.444;18.560;2024-01-30T00:35:01;102587.81;;;5.54;58.35
28797;BME280;24974;54.444;18.560;2024-01-30T00:37:32;102591.16;;;6.16;56.80
28797;BME280;24974;54.444;18.560;2024-01-30T00:40:03;102587.59;;;5.86;57.39
28797;BME280;24974;54.444;18.560;2024-01-30T00:42:34;102580.44;;;6.03;57.14
28797;BME280;24974;54.444;18.560;2024-01-30T00:45:05;102580.22;;;6.16;57.45
28797;BME280;24974;54.444;18.560;2024-01-30T00:47:37;102594.06;;;6.45;56.04
28797;BME280;24974;54.444;18.560;2024-01-30T00:50:08;102585.44;;;6.06;57.42
28797;BME280;24974;54.444;18.560;2024-01-30T00:52:39;102589.88;;;6.31;57.08
28797;BME280;24974;54.444;18.560;2024-01-30T00:55:12;102589.63;;;6.21;56.95
28797;BME280;24974;54.444;18.560;2024-01-30T00:57:43;102585.50;;;6.30;56.54
28797;BME280;24974;54.444;18.560;2024-01-30T01:00:14;102583.63;;;5.52;58.64
28797;BME280;24974;54.444;18.560;2024-01-30T01:02:48;102581.19;;;4.89;60.89
28797;BME280;24974;54.444;18.560;2024-01-30T01:05:19;102586.09;;;5.72;58.77
28797;BME280;24974;54.444;18.560;2024-01-30T01:07:50;102581.22;;;5.62;58.71
28797;BME280;24974;54.444;18.560;2024-01-30T01:10:20;102577.88;;;5.90;58.17
28797;BME280;24974;54.444;18.560;2024-01-30T01:12:51;102579.91;;;5.65;58.43
28797;BME280;24974;54.444;18.560;2024-01-30T01:15:22;102576.00;;;5.91;57.81
28797;BME280;24974;54.444;18.560;2024-01-30T01:17:53;102579.50;;;6.09;57.29
28797;BME280;24974;54.444;18.560;2024-01-30T01:20:24;102576.38;;;5.46;58.55
28797;BME280;24974;54.444;18.560;2024-01-30T01:22:55;102577.47;;;6.05;57.29
28797;BME280;24974;54.444;18.560;2024-01-30T01:25:26;102580.25;;;5.68;58.59
28797;BME280;24974;54.444;18.560;2024-01-30T01:27:57;102580.59;;;4.87;60.68
28797;BME280;24974;54.444;18.560;2024-01-30T01:30:28;102572.41;;;4.68;61.54
28797;BME280;24974;54.444;18.560;2024-01-30T01:32:59;102575.50;;;5.15;61.19
28797;BME280;24974;54.444;18.560;2024-01-30T01:35:32;102577.41;;;3.90;63.93
28797;BME280;24974;54.444;18.560;2024-01-30T01:38:03;102574.59;;;3.72;65.24
28797;BME280;24974;54.444;18.560;2024-01-30T01:40:35;102576.22;;;4.86;61.76
28797;BME280;24974;54.444;18.560;2024-01-30T01:43:06;102573.75;;;5.69;59.32
28797;BME280;24974;54.444;18.560;2024-01-30T01:45:36;102570.19;;;4.59;62.58
28797;BME280;24974;54.444;18.560;2024-01-30T01:48:07;102573.53;;;4.79;62.38
28797;BME280;24974;54.444;18.560;2024-01-30T01:50:42;102573.97;;;5.38;61.03
28797;BME280;24974;54.444;18.560;2024-01-30T01:53:13;102565.22;;;5.77;58.98
28797;BME280;24974;54.444;18.560;2024-01-30T01:55:46;102564.25;;;5.05;61.84
28797;BME280;24974;54.444;18.560;2024-01-30T01:58:18;102561.06;;;5.93;58.95
28797;BME280;24974;54.444;18.560;2024-01-30T02:00:51;102556.84;;;5.30;60.54
28797;BME280;24974;54.444;18.560;2024-01-30T02:03:22;102552.91;;;5.08;61.89
28797;BME280;24974;54.444;18.560;2024-01-30T02:05:53;102547.91;;;4.87;61.72
28797;BME280;24974;54.444;18.560;2024-01-30T02:08:26;102550.09;;;4.35;63.09
28797;BME280;24974;54.444;18.560;2024-01-30T02:10:57;102542.50;;;4.62;62.38
28797;BME280;24974;54.444;18.560;2024-01-30T02:13:28;102545.22;;;5.53;59.42
28797;BME280;24974;54.444;18.560;2024-01-30T02:15:59;102548.69;;;5.60;59.74
28797;BME280;24974;54.444;18.560;2024-01-30T02:18:29;102540.19;;;5.39;59.23
28797;BME280;24974;54.444;18.560;2024-01-30T02:21:04;102542.38;;;5.78;58.97
28797;BME280;24974;54.444;18.560;2024-01-30T02:23:36;102538.84;;;5.89;58.08
28797;BME280;24974;54.444;18.560;2024-01-30T02:26:07;102538.00;;;5.89;58.33
28797;BME280;24974;54.444;18.560;2024-01-30T02:28:38;102543.63;;;5.64;58.74
28797;BME280;24974;54.444;18.560;2024-01-30T02:31:09;102537.19;;;5.58;58.57
28797;BME280;24974;54.444;18.560;2024-01-30T02:33:40;102533.56;;;5.76;58.48
28797;BME280;24974;54.444;18.560;2024-01-30T02:36:11;102534.84;;;5.44;59.63
28797;BME280;24974;54.444;18.560;2024-01-30T02:38:42;102540.50;;;5.30;59.87
28797;BME280;24974;54.444;18.560;2024-01-30T02:41:12;102527.16;;;5.71;58.52
28797;BME280;24974;54.444;18.560;2024-01-30T02:43:44;102532.47;;;5.66;59.02
28797;BME280;24974;54.444;18.560;2024-01-30T02:46:14;102531.56;;;5.83;58.30
28797;BME280;24974;54.444;18.560;2024-01-30T02:48:45;102538.69;;;6.14;57.41
28797;BME280;24974;54.444;18.560;2024-01-30T02:51:16;102544.88;;;6.22;57.26
28797;BME280;24974;54.444;18.560;2024-01-30T02:53:47;102531.44;;;6.08;57.11
28797;BME280;24974;54.444;18.560;2024-01-30T02:56:18;102539.16;;;5.81;57.77
28797;BME280;24974;54.444;18.560;2024-01-30T02:58:49;102541.00;;;5.69;58.13
28797;BME280;24974;54.444;18.560;2024-01-30T03:01:20;102540.09;;;6.05;57.56
28797;BME280;24974;54.444;18.560;2024-01-30T03:03:51;102533.66;;;6.00;57.54
28797;BME280;24974;54.444;18.560;2024-01-30T03:06:21;102541.50;;;5.96;57.61
28797;BME280;24974;54.444;18.560;2024-01-30T03:08:53;102539.59;;;5.97;57.21
28797;BME280;24974;54.444;18.560;2024-01-30T03:11:24;102542.47;;;6.02;56.91
28797;BME280;24974;54.444;18.560;2024-01-30T03:13:55;102534.69;;;5.87;56.65
28797;BME280;24974;54.444;18.560;2024-01-30T03:16:26;102539.59;;;5.97;57.47
28797;BME280;24974;54.444;18.560;2024-01-30T03:18:57;102544.81;;;5.98;57.46
28797;BME280;24974;54.444;18.560;2024-01-30T03:21:28;102537.47;;;5.39;59.59
28797;BME280;24974;54.444;18.560;2024-01-30T03:23:59;102541.13;;;5.44;58.66
28797;BME280;24974;54.444;18.560;2024-01-30T03:26:30;102540.06;;;5.64;59.20
28797;BME280;24974;54.444;18.560;2024-01-30T03:29:01;102537.47;;;4.15;62.69
28797;BME280;24974;54.444;18.560;2024-01-30T03:31:32;102530.41;;;4.58;61.72
28797;BME280;24974;54.444;18.560;2024-01-30T03:34:03;102538.31;;;5.02;60.50
28797;BME280;24974;54.444;18.560;2024-01-30T03:36:34;102528.41;;;4.46;61.75
28797;BME280;24974;54.444;18.560;2024-01-30T03:39:05;102526.34;;;4.67;61.75
28797;BME280;24974;54.444;18.560;2024-01-30T03:41:36;102527.09;;;4.74;61.33
28797;BME280;24974;54.444;18.560;2024-01-30T03:44:07;102521.97;;;4.41;62.68
28797;BME280;24974;54.444;18.560;2024-01-30T03:46:38;102529.44;;;4.70;61.50
28797;BME280;24974;54.444;18.560;2024-01-30T03:49:09;102524.63;;;4.91;60.30
28797;BME280;24974;54.444;18.560;2024-01-30T03:51:40;102525.66;;;5.08;60.39
28797;BME280;24974;54.444;18.560;2024-01-30T03:54:11;102529.47;;;5.07;60.30
28797;BME280;24974;54.444;18.560;2024-01-30T03:56:42;102525.75;;;4.83;60.80
28797;BME280;24974;54.444;18.560;2024-01-30T03:59:13;102519.22;;;4.41;62.46
28797;BME280;24974;54.444;18.560;2024-01-30T04:01:46;102526.28;;;4.73;61.43
28797;BME280;24974;54.444;18.560;2024-01-30T04:04:20;102521.50;;;5.05;60.55
28797;BME280;24974;54.444;18.560;2024-01-30T04:06:51;102528.00;;;4.68;61.38
28797;BME280;24974;54.444;18.560;2024-01-30T04:09:22;102531.78;;;4.85;60.66
28797;BME280;24974;54.444;18.560;2024-01-30T04:11:53;102533.28;;;4.63;61.43
28797;BME280;24974;54.444;18.560;2024-01-30T04:14:24;102536.47;;;4.60;61.92
28797;BME280;24974;54.444;18.560;2024-01-30T04:16:55;102533.06;;;3.89;63.38
28797;BME280;24974;54.444;18.560;2024-01-30T04:19:25;102531.19;;;4.15;62.72
28797;BME280;24974;54.444;18.560;2024-01-30T04:21:56;102525.19;;;3.75;63.89
28797;BME280;24974;54.444;18.560;2024-01-30T04:24:27;102515.84;;;3.96;63.29
28797;BME280;24974;54.444;18.560;2024-01-30T04:26:58;102524.03;;;3.96;63.44
28797;BME280;24974;54.444;18.560;2024-01-30T04:29:29;102525.03;;;4.01;63.43
28797;BME280;24974;54.444;18.560;2024-01-30T04:32:00;102522.94;;;4.28;63.11
28797;BME280;24974;54.444;18.560;2024-01-30T04:34:30;102526.47;;;3.72;64.87
28797;BME280;24974;54.444;18.560;2024-01-30T04:37:01;102537.03;;;3.93;63.81
28797;BME280;24974;54.444;18.560;2024-01-30T04:39:35;102524.31;;;4.37;63.24
28797;BME280;24974;54.444;18.560;2024-01-30T04:42:07;102525.84;;;4.52;61.76
28797;BME280;24974;54.444;18.560;2024-01-30T04:44:38;102528.44;;;3.58;65.48
28797;BME280;24974;54.444;18.560;2024-01-30T04:47:09;102522.13;;;3.20;66.00
28797;BME280;24974;54.444;18.560;2024-01-30T04:49:42;102518.94;;;3.36;66.00
28797;BME280;24974;54.444;18.560;2024-01-30T04:52:13;102516.91;;;3.95;64.42
28797;BME280;24974;54.444;18.560;2024-01-30T04:54:44;102514.81;;;3.97;64.96
28797;BME280;24974;54.444;18.560;2024-01-30T04:57:14;102512.25;;;4.70;62.07
28797;BME280;24974;54.444;18.560;2024-01-30T04:59:45;102514.28;;;4.56;63.07
28797;BME280;24974;54.444;18.560;2024-01-30T05:02:16;102515.44;;;4.85;61.31
28797;BME280;24974;54.444;18.560;2024-01-30T05:04:47;102506.19;;;5.04;60.27
28797;BME280;24974;54.444;18.560;2024-01-30T05:07:18;102517.44;;;4.10;63.80
28797;BME280;24974;54.444;18.560;2024-01-30T05:09:49;102509.81;;;4.62;62.12
28797;BME280;24974;54.444;18.560;2024-01-30T05:12:20;102510.94;;;4.54;61.45
28797;BME280;24974;54.444;18.560;2024-01-30T05:14:51;102510.19;;;5.20;60.13
28797;BME280;24974;54.444;18.560;2024-01-30T05:17:22;102510.00;;;5.22;59.73
28797;BME280;24974;54.444;18.560;2024-01-30T05:19:52;102521.84;;;5.46;59.63
28797;BME280;24974;54.444;18.560;2024-01-30T05:22:23;102525.06;;;5.06;59.66
28797;BME280;24974;54.444;18.560;2024-01-30T05:24:54;102523.19;;;5.37;58.64
28797;BME280;24974;54.444;18.560;2024-01-30T05:27:25;102524.59;;;5.27;59.18
28797;BME280;24974;54.444;18.560;2024-01-30T05:29:56;102520.75;;;5.77;58.48
28797;BME280;24974;54.444;18.560;2024-01-30T05:32:26;102515.78;;;5.74;58.11
28797;BME280;24974;54.444;18.560;2024-01-30T05:34:57;102520.50;;;5.67;57.83
28797;BME280;24974;54.444;18.560;2024-01-30T05:37:28;102515.34;;;5.58;58.32
28797;BME280;24974;54.444;18.560;2024-01-30T05:39:59;102522.00;;;5.32;59.53
28797;BME280;24974;54.444;18.560;2024-01-30T05:42:30;102522.09;;;5.86;58.33
28797;BME280;24974;54.444;18.560;2024-01-30T05:45:01;102519.69;;;6.08;56.71
28797;BME280;24974;54.444;18.560;2024-01-30T05:47:31;102518.59;;;5.67;58.27
28797;BME280;24974;54.444;18.560;2024-01-30T05:50:02;102514.56;;;6.00;56.74
28797;BME280;24974;54.444;18.560;2024-01-30T05:52:34;102508.63;;;6.96;54.71
28797;BME280;24974;54.444;18.560;2024-01-30T05:55:04;102513.56;;;5.52;57.85
28797;BME280;24974;54.444;18.560;2024-01-30T05:57:36;102522.41;;;5.18;58.85
28797;BME280;24974;54.444;18.560;2024-01-30T06:00:07;102532.19;;;6.27;56.55
28797;BME280;24974;54.444;18.560;2024-01-30T06:02:39;102534.22;;;6.55;55.39
28797;BME280;24974;54.444;18.560;2024-01-30T06:05:10;102533.75;;;6.70;55.02
28797;BME280;24974;54.444;18.560;2024-01-30T06:07:40;102541.94;;;6.70;54.82
28797;BME280;24974;54.444;18.560;2024-01-30T06:10:11;102535.03;;;6.79;55.08
28797;BME280;24974;54.444;18.560;2024-01-30T06:12:42;102522.22;;;6.68;54.80
28797;BME280;24974;54.444;18.560;2024-01-30T06:15:13;102532.03;;;6.10;56.54
28797;BME280;24974;54.444;18.560;2024-01-30T06:17:44;102520.19;;;6.63;54.79
28797;BME280;24974;54.444;18.560;2024-01-30T06:20:14;102528.50;;;6.22;55.78
28797;BME280;24974;54.444;18.560;2024-01-30T06:22:45;102534.94;;;6.51;55.09
28797;BME280;24974;54.444;18.560;2024-01-30T06:25:16;102535.16;;;6.72;54.89
28797;BME280;24974;54.444;18.560;2024-01-30T06:27:47;102530.41;;;6.68;55.20
28797;BME280;24974;54.444;18.560;2024-01-30T06:30:18;102525.78;;;6.45;55.16
28797;BME280;24974;54.444;18.560;2024-01-30T06:32:49;102529.25;;;6.52;55.34
28797;BME280;24974;54.444;18.560;2024-01-30T06:35:19;102519.38;;;6.63;55.11
28797;BME280;24974;54.444;18.560;2024-01-30T06:37:52;102520.78;;;6.77;54.28
28797;BME280;24974;54.444;18.560;2024-01-30T06:40:22;102522.56;;;6.48;55.64
28797;BME280;24974;54.444;18.560;2024-01-30T06:42:53;102527.78;;;6.38;55.59
28797;BME280;24974;54.444;18.560;2024-01-30T06:45:24;102520.31;;;6.68;54.89
28797;BME280;24974;54.444;18.560;2024-01-30T06:47:54;102522.41;;;7.01;54.46
28797;BME280;24974;54.444;18.560;2024-01-30T06:50:26;102523.28;;;6.90;54.41
28797;BME280;24974;54.444;18.560;2024-01-30T06:52:56;102520.47;;;6.50;55.01
28797;BME280;24974;54.444;18.560;2024-01-30T06:55:27;102522.19;;;6.91;54.65
28797;BME280;24974;54.444;18.560;2024-01-30T06:57:58;102517.38;;;7.22;53.29
28797;BME280;24974;54.444;18.560;2024-01-30T07:00:29;102509.78;;;7.12;53.33
28797;BME280;24974;54.444;18.560;2024-01-30T07:03:00;102512.72;;;6.35;55.75
28797;BME280;24974;54.444;18.560;2024-01-30T07:05:31;102512.69;;;5.70;57.05
28797;BME280;24974;54.444;18.560;2024-01-30T07:08:02;102513.09;;;6.74;54.64
28797;BME280;24974;54.444;18.560;2024-01-30T07:10:33;102518.47;;;6.97;53.82
28797;BME280;24974;54.444;18.560;2024-01-30T07:13:04;102516.84;;;6.73;54.31
28797;BME280;24974;54.444;18.560;2024-01-30T07:15:36;102510.22;;;5.80;57.28
28797;BME280;24974;54.444;18.560;2024-01-30T07:18:07;102503.81;;;6.40;55.57
28797;BME280;24974;54.444;18.560;2024-01-30T07:20:38;102499.50;;;6.91;54.13
28797;BME280;24974;54.444;18.560;2024-01-30T07:23:13;102498.69;;;6.20;56.28
28797;BME280;24974;54.444;18.560;2024-01-30T07:25:47;102505.38;;;6.59;54.75
28797;BME280;24974;54.444;18.560;2024-01-30T07:28:20;102497.56;;;7.43;52.83
28797;BME280;24974;54.444;18.560;2024-01-30T07:30:51;102498.09;;;6.65;54.52
28797;BME280;24974;54.444;18.560;2024-01-30T07:33:22;102506.66;;;6.57;54.22
28797;BME280;24974;54.444;18.560;2024-01-30T07:35:53;102504.56;;;7.11;53.19
28797;BME280;24974;54.444;18.560;2024-01-30T07:38:24;102509.91;;;7.46;52.58
28797;BME280;24974;54.444;18.560;2024-01-30T07:40:54;102506.97;;;6.95;53.74
28797;BME280;24974;54.444;18.560;2024-01-30T07:43:25;102500.13;;;6.46;55.20
28797;BME280;24974;54.444;18.560;2024-01-30T07:45:56;102491.78;;;7.56;52.53
28797;BME280;24974;54.444;18.560;2024-01-30T07:48:27;102493.38;;;7.12;52.74
28797;BME280;24974;54.444;18.560;2024-01-30T07:50:58;102498.16;;;7.05;54.02
28797;BME280;24974;54.444;18.560;2024-01-30T07:53:29;102503.09;;;7.32;53.01
28797;BME280;24974;54.444;18.560;2024-01-30T07:55:59;102507.38;;;6.29;55.00
28797;BME280;24974;54.444;18.560;2024-01-30T07:58:30;102507.84;;;6.84;53.68
28797;BME280;24974;54.444;18.560;2024-01-30T08:01:01;102500.09;;;6.81;53.67
28797;BME280;24974;54.444;18.560;2024-01-30T08:03:31;102501.66;;;6.77;54.65
28797;BME280;24974;54.444;18.560;2024-01-30T08:06:03;102510.06;;;6.87;54.25
28797;BME280;24974;54.444;18.560;2024-01-30T08:08:34;102505.00;;;6.32;54.46
28797;BME280;24974;54.444;18.560;2024-01-30T08:11:04;102505.81;;;6.56;54.29
28797;BME280;24974;54.444;18.560;2024-01-30T08:13:36;102510.16;;;7.44;52.47
28797;BME280;24974;54.444;18.560;2024-01-30T08:16:07;102501.44;;;7.76;51.23
28797;BME280;24974;54.444;18.560;2024-01-30T08:18:38;102506.19;;;7.52;51.53
28797;BME280;24974;54.444;18.560;2024-01-30T08:21:08;102505.38;;;7.80;51.34
28797;BME280;24974;54.444;18.560;2024-01-30T08:23:39;102506.91;;;8.38;50.34
28797;BME280;24974;54.444;18.560;2024-01-30T08:26:10;102508.31;;;7.33;51.92
28797;BME280;24974;54.444;18.560;2024-01-30T08:28:41;102505.84;;;7.20;52.73
28797;BME280;24974;54.444;18.560;2024-01-30T08:31:12;102501.91;;;6.76;54.03
28797;BME280;24974;54.444;18.560;2024-01-30T08:33:43;102506.53;;;8.01;51.18
28797;BME280;24974;54.444;18.560;2024-01-30T08:36:15;102504.16;;;7.59;52.11
28797;BME280;24974;54.444;18.560;2024-01-30T08:38:46;102506.78;;;8.50;49.86
28797;BME280;24974;54.444;18.560;2024-01-30T08:41:16;102507.75;;;8.77;49.13
28797;BME280;24974;54.444;18.560;2024-01-30T08:43:47;102513.38;;;8.87;49.10
28797;BME280;24974;54.444;18.560;2024-01-30T08:46:18;102522.56;;;8.26;50.20
28797;BME280;24974;54.444;18.560;2024-01-30T08:48:49;102522.16;;;8.67;49.29
28797;BME280;24974;54.444;18.560;2024-01-30T08:51:20;102525.34;;;8.43;50.21
28797;BME280;24974;54.444;18.560;2024-01-30T08:53:51;102525.91;;;7.25;52.22
28797;BME280;24974;54.444;18.560;2024-01-30T08:56:23;102531.44;;;7.54;51.92
28797;BME280;24974;54.444;18.560;2024-01-30T08:58:54;102527.88;;;8.32;50.85
28797;BME280;24974;54.444;18.560;2024-01-30T09:01:25;102529.03;;;7.57;52.69
28797;BME280;24974;54.444;18.560;2024-01-30T09:03:56;102530.44;;;7.32;51.77
28797;BME280;24974;54.444;18.560;2024-01-30T09:06:27;102529.56;;;8.67;49.73
28797;BME280;24974;54.444;18.560;2024-01-30T09:08:58;102518.75;;;8.99;48.15
28797;BME280;24974;54.444;18.560;2024-01-30T09:11:29;102528.88;;;9.42;47.26
28797;BME280;24974;54.444;18.560;2024-01-30T09:14:00;102525.84;;;9.39;47.71
28797;BME280;24974;54.444;18.560;2024-01-30T09:16:31;102523.75;;;9.73;46.74
28797;BME280;24974;54.444;18.560;2024-01-30T09:19:02;102528.13;;;9.74;46.99
28797;BME280;24974;54.444;18.560;2024-01-30T09:21:32;102516.63;;;9.06;48.32
28797;BME280;24974;54.444;18.560;2024-01-30T09:24:04;102520.47;;;9.05;48.89
28797;BME280;24974;54.444;18.560;2024-01-30T09:26:35;102521.44;;;9.16;48.51
28797;BME280;24974;54.444;18.560;2024-01-30T09:29:06;102515.78;;;8.11;50.79
28797;BME280;24974;54.444;18.560;2024-01-30T09:31:37;102505.44;;;9.08;48.50
28797;BME280;24974;54.444;18.560;2024-01-30T09:34:08;102518.09;;;9.14;48.36
28797;BME280;24974;54.444;18.560;2024-01-30T09:36:39;102516.00;;;9.43;48.08
28797;BME280;24974;54.444;18.560;2024-01-30T09:39:10;102507.53;;;8.62;49.74
28797;BME280;24974;54.444;18.560;2024-01-30T09:41:58;102509.81;;;9.31;48.15
28797;BME280;24974;54.444;18.560;2024-01-30T09:44:35;102517.44;;;9.77;48.00
28797;BME280;24974;54.444;18.560;2024-01-30T09:47:07;102518.09;;;9.14;48.61
28797;BME280;24974;54.444;18.560;2024-01-30T09:49:38;102520.41;;;9.22;49.01
28797;BME280;24974;54.444;18.560;2024-01-30T09:52:09;102516.38;;;10.80;45.72
28797;BME280;24974;54.444;18.560;2024-01-30T09:54:41;102520.06;;;10.53;46.36
28797;BME280;24974;54.444;18.560;2024-01-30T09:57:12;102503.38;;;10.28;46.47
28797;BME280;24974;54.444;18.560;2024-01-30T09:59:43;102504.69;;;9.93;47.03
28797;BME280;24974;54.444;18.560;2024-01-30T10:02:15;102511.50;;;10.18;46.40
28797;BME280;24974;54.444;18.560;2024-01-30T10:04:50;102506.56;;;10.94;44.91
28797;BME280;24974;54.444;18.560;2024-01-30T10:07:21;102503.44;;;9.47;48.25
28797;BME280;24974;54.444;18.560;2024-01-30T10:09:53;102500.63;;;10.28;46.99
28797;BME280;24974;54.444;18.560;2024-01-30T10:12:26;102488.97;;;9.57;47.87
28797;BME280;24974;54.444;18.560;2024-01-30T10:14:57;102487.97;;;9.95;47.51
28797;BME280;24974;54.444;18.560;2024-01-30T10:17:29;102484.66;;;9.93;47.40
28797;BME280;24974;54.444;18.560;2024-01-30T10:20:00;102483.06;;;10.34;46.55
28797;BME280;24974;54.444;18.560;2024-01-30T10:22:30;102486.63;;;10.29;46.50
28797;BME280;24974;54.444;18.560;2024-01-30T10:25:01;102479.31;;;10.92;45.68
28797;BME280;24974;54.444;18.560;2024-01-30T10:27:32;102483.69;;;10.88;45.08
28797;BME280;24974;54.444;18.560;2024-01-30T10:30:04;102477.09;;;10.89;45.28
28797;BME280;24974;54.444;18.560;2024-01-30T10:32:35;102475.78;;;11.02;45.21
28797;BME280;24974;54.444;18.560;2024-01-30T10:35:06;102465.50;;;11.65;44.46
28797;BME280;24974;54.444;18.560;2024-01-30T10:37:37;102461.97;;;11.90;44.56
28797;BME280;24974;54.444;18.560;2024-01-30T10:40:09;102461.63;;;11.76;44.50
28797;BME280;24974;54.444;18.560;2024-01-30T10:42:44;102464.72;;;11.80;44.59
28797;BME280;24974;54.444;18.560;2024-01-30T10:45:15;102462.50;;;12.08;43.19
28797;BME280;24974;54.444;18.560;2024-01-30T10:47:50;102459.41;;;12.60;43.04
28797;BME280;24974;54.444;18.560;2024-01-30T10:50:24;102460.25;;;12.45;42.68
28797;BME280;24974;54.444;18.560;2024-01-30T10:52:55;102455.19;;;11.15;44.99
28797;BME280;24974;54.444;18.560;2024-01-30T10:55:28;102452.88;;;12.05;43.53
28797;BME280;24974;54.444;18.560;2024-01-30T10:58:00;102449.25;;;12.40;42.84
28797;BME280;24974;54.444;18.560;2024-01-30T11:00:31;102447.34;;;13.05;42.27
28797;BME280;24974;54.444;18.560;2024-01-30T11:03:04;102440.13;;;12.45;43.10
28797;BME280;24974;54.444;18.560;2024-01-30T11:05:35;102442.63;;;12.46;43.09
28797;BME280;24974;54.444;18.560;2024-01-30T11:08:14;102442.81;;;12.65;42.15
28797;BME280;24974;54.444;18.560;2024-01-30T11:10:48;102438.00;;;11.81;44.09
28797;BME280;24974;54.444;18.560;2024-01-30T11:13:19;102433.81;;;12.19;42.85
28797;BME280;24974;54.444;18.560;2024-01-30T11:15:50;102437.44;;;12.99;42.45
28797;BME280;24974;54.444;18.560;2024-01-30T11:18:25;102428.94;;;12.91;41.82
28797;BME280;24974;54.444;18.560;2024-01-30T11:20:57;102432.13;;;13.18;42.36
28797;BME280;24974;54.444;18.560;2024-01-30T11:23:28;102426.66;;;11.67;44.78
28797;BME280;24974;54.444;18.560;2024-01-30T11:26:00;102422.28;;;12.12;44.43
28797;BME280;24974;54.444;18.560;2024-01-30T11:28:37;102411.66;;;12.65;43.58
28797;BME280;24974;54.444;18.560;2024-01-30T11:31:08;102406.72;;;13.21;42.79
28797;BME280;24974;54.444;18.560;2024-01-30T11:33:39;102402.88;;;13.12;43.18
28797;BME280;24974;54.444;18.560;2024-01-30T11:36:11;102402.69;;;11.57;45.65
28797;BME280;24974;54.444;18.560;2024-01-30T11:38:43;102405.19;;;12.10;44.51
28797;BME280;24974;54.444;18.560;2024-01-30T11:41:16;102400.84;;;12.78;43.52
28797;BME280;24974;54.444;18.560;2024-01-30T11:43:53;102389.97;;;13.07;42.44
28797;BME280;24974;54.444;18.560;2024-01-30T11:46:25;102389.91;;;13.12;43.09
28797;BME280;24974;54.444;18.560;2024-01-30T11:48:56;102380.94;;;12.12;45.12
28797;BME280;24974;54.444;18.560;2024-01-30T11:51:27;102377.88;;;12.28;44.99
28797;BME280;24974;54.444;18.560;2024-01-30T11:53:58;102379.31;;;11.80;45.56
28797;BME280;24974;54.444;18.560;2024-01-30T11:56:29;102378.22;;;12.81;43.97
28797;BME280;24974;54.444;18.560;2024-01-30T11:59:00;102372.13;;;12.04;45.13
28797;BME280;24974;54.444;18.560;2024-01-30T12:01:31;102366.06;;;11.67;46.17
28797;BME280;24974;54.444;18.560;2024-01-30T12:04:03;102372.44;;;11.88;46.53
28797;BME280;24974;54.444;18.560;2024-01-30T12:06:39;102370.75;;;11.92;46.26
28797;BME280;24974;54.444;18.560;2024-01-30T12:09:10;102368.06;;;13.26;43.00
28797;BME280;24974;54.444;18.560;2024-01-30T12:11:44;102364.00;;;12.49;44.85
28797;BME280;24974;54.444;18.560;2024-01-30T12:14:16;102366.63;;;12.79;44.19
28797;BME280;24974;54.444;18.560;2024-01-30T12:16:48;102367.31;;;13.50;42.71
28797;BME280;24974;54.444;18.560;2024-01-30T12:19:24;102366.59;;;13.73;42.09
28797;BME280;24974;54.444;18.560;2024-01-30T12:21:58;102359.66;;;13.41;42.69
28797;BME280;24974;54.444;18.560;2024-01-30T12:24:29;102372.06;;;14.31;41.52
28797;BME280;24974;54.444;18.560;2024-01-30T12:27:03;102370.28;;;14.16;41.75
28797;BME280;24974;54.444;18.560;2024-01-30T12:29:34;102370.78;;;12.77;44.14
28797;BME280;24974;54.444;18.560;2024-01-30T12:32:05;102368.25;;;13.35;42.96
28797;BME280;24974;54.444;18.560;2024-01-30T12:34:40;102372.91;;;14.03;41.79
28797;BME280;24974;54.444;18.560;2024-01-30T12:37:12;102367.38;;;14.98;39.89
28797;BME280;24974;54.444;18.560;2024-01-30T12:39:44;102369.06;;;13.75;41.57
28797;BME280;24974;54.444;18.560;2024-01-30T12:42:14;102365.13;;;13.81;41.89
28797;BME280;24974;54.444;18.560;2024-01-30T12:44:45;102371.25;;;14.31;41.16
28797;BME280;24974;54.444;18.560;2024-01-30T12:47:16;102371.56;;;14.77;40.23
28797;BME280;24974;54.444;18.560;2024-01-30T12:49:47;102365.88;;;14.87;40.14
28797;BME280;24974;54.444;18.560;2024-01-30T12:52:18;102365.00;;;13.62;42.99
28797;BME280;24974;54.444;18.560;2024-01-30T12:54:49;102366.63;;;15.30;38.73
28797;BME280;24974;54.444;18.560;2024-01-30T12:57:20;102366.88;;;14.24;40.84
28797;BME280;24974;54.444;18.560;2024-01-30T12:59:51;102357.22;;;13.35;42.91
28797;BME280;24974;54.444;18.560;2024-01-30T13:02:22;102355.63;;;13.92;41.89
28797;BME280;24974;54.444;18.560;2024-01-30T13:04:54;102367.06;;;14.81;40.06
28797;BME280;24974;54.444;18.560;2024-01-30T13:07:25;102352.56;;;15.78;38.67
28797;BME280;24974;54.444;18.560;2024-01-30T13:09:56;102359.25;;;16.78;36.83